Main page
METAR-TAF:

METAR-TAF

Airports :

Dushanbe International Airport

Dushanbe, Tajikistan

latitude: 38-33N, longitude: 068-47E, elevation: 803 m

Current weather observation

The report was made 22 minutes ago, at 19:00 UTC
Wind 4 kt from the East/Southeast
Temperature 22°C
Humidity 53%
Pressure 1006 hPa
Visibility 10 km or more

METAR: UTDD 181900Z 11002MPS 9999 NSC 22/12 Q1006 R09/D NOSIG RMK QFE687/0916

Time: 00:22 (19:22 UTC)

Forecast

The report was made 1 hour and 22 minutes ago, at 18:00 UTC
Forecast valid from 18 at 19 UTC to 19 at 07 UTC
Wind 4 kt from variable directions
Visibility: 6000 m
Few clouds at a height of 6600 ft, Cumulonimbus.
Scattered clouds at a height of 10000 ft
Temporary
from 18 at 19 UTC to 19 at 07 UTC
Wind 10 kt from the East/Northeast

TAF: UTDD 181800Z 1819/1907 VRB02MPS 6000 FEW066CB SCT100 TEMPO 1819/1907 06005MPS

Weather observations and forecasts of more than 4000 airports (METAR and TAF reports).

The available stations are represented by yellow and red dots on the map.

Hover mouse over dot to see the name of the station.

Then click to see weather observations and forecasts.

To change the map : click on the green buttons with a black cross to zoom in, on the green button with a dash to zoom out, or on the green arrows for adjacent maps.


METAR-TAF: